Startpagina
METAR-TAF:

METAR-TAF

Vliegvelden :

Ankara Esenboğa, Turkije

Luchthaven Ankara Esenboga

breedte: 40-07N, lengte: 032-59E, hoogte: 953 m

Actueel weer

Dit bericht is 31 minuten geleden gemaakt, om 12:50 UTC
Wind 10 kt uit het zuiden
Temperatuur 35°C
Vochtigheid 11%
Druk 1012 hPa
Zicht 10 km of meer
Verspreide wolken op 4000 ft

METAR: LTAC 191250Z 19010KT 9999 SCT040 35/00 Q1012 NOSIG RMK RWY21L 21010KT RWY03L 21008KT 180V240 RWY21R 21009KT 170V260

Tijdstip: 16:21 (13:21 UTC)

Verwachting

Dit bericht is 2 uur en het 41 minuten geleden gemaakt, om 10:40 UTC
Verwachting geldig van 19 om 12 UTC tot 20 om 12 UTC
Wind 2 kt uit variabele richting
Zicht 10 km of meer
Verspreide wolken op 4000 ft
Kans 30% :
Tijdelijke
van 19 om 15 UTC tot 19 om 18 UTC
Weinig wolken op 2500 ft, Cumulonimbus.
Gebroken wolken op 3000 ft
onweer, lichte regen

TAF: LTAC 191040Z 1912/2012 VRB02KT 9999 SCT040 PROB30 TEMPO 1915/1918 -TSRA FEW025CB BKN030

Waarnemingen en weersverwachtingen van meer dan 4000 vliegvelden (METAR en TAF).

De beschikbare stations zijn de gele en rode punten op de kaart.

Ga met uw muis naar het station om de naam te zien.

Klik dan om waarnemingen en weersverwachtingen te zien.

kaart wijzigen: klik op de groene knoppen met een zwart kruis om in te zoomen, op de groene knop met een streepje om uit te zoomen of op de groene pijlen voor aangrenzende kaarten.


METAR-TAF: